Disclaimer

Please do not use the information listed here in-flight or in-navigation, as they are not provided to us by the airports but are provided by volunteers, so they might be outdated.

Search


Regions


Airport information page

Radio informations:
Tower (TWR) - 118.2 MHz
OPERATIONS - 369.3 MHz
Ground (GND) - 118.2 MHz
Director (DIR) - 123.3 MHz
DEP - 119.35 MHz
Automatic Terminal Information Service (ATIS) - 264.775 MHz
Approach (APP) - 123.3 MHz

Airport informations:
Latitude: 57° 42' 18.77" N
Longitude: 003° 20' 21.01" W
Elevation: 42 feet - 13 meters
Operating hours: Remarks
Operating agency: Military
Timezone: UTC 0(+1DT) - Last Sunday in March to last Sunday in October
Fuel: N/A

Runway information:
05/23 - 9091 x 150 feet< - >2771 x 46 meters
10/28 - 6066 x 150 feet< - >1849 x 46 meters

Recent METARs:
EGQS 202150Z 08017KT 9999 FEW025 SCT035 07/02 Q1022 BLU
EGQS 202150Z 08017KT 9999 FEW025 SCT035 07/02 Q1022 BLU
EGQS 202250Z 08016KT 9999 FEW023 BKN035 07/03 Q1021 BLU

Airport on the map: